Marthasville, Missouri
Current Conditions -  °F | °C
As of 1:55 PM on Thursday 23 Oct 2014 (Local Time) from KFYG Reporting Station
Few Clouds Few Clouds  
Wind Chill: 63°   Ceiling: Unl
Heat Index: 63°   Visibility: 10mi
Dew Point: 45°   Wind: 7mph
Humidity: 52%   Direction: 190°S
Pressure: 30.13"   Gusts: NA
Location:  38.63°N, 91.06°W
Report Text: KFYG 231855Z AUTO 19006KT 10SM FEW049 17/07 A3013 RMK AO2
Loading
Personal Weather Stations






























Interactive Weather Map
Tropical Storm Tracking
New forecast layout! Learn more

10-Day Weather Forecast

Advertisements
Track Severe Weather on mobile